createdAt,value
2019-05-15T00:00:38.637Z,11.90
2019-05-15T00:03:08.685Z,11.90
2019-05-15T00:05:38.958Z,11.90
2019-05-15T00:08:09.375Z,11.90
2019-05-15T00:10:39.406Z,11.80
2019-05-15T00:13:09.391Z,11.80
2019-05-15T00:15:40.189Z,11.80
2019-05-15T00:18:09.785Z,11.70
2019-05-15T00:20:39.705Z,11.60
2019-05-15T00:23:09.241Z,11.60
2019-05-15T00:25:39.436Z,11.50
2019-05-15T00:28:09.627Z,11.50
2019-05-15T00:30:39.272Z,11.50
2019-05-15T00:33:09.259Z,11.50
2019-05-15T00:35:39.667Z,11.40
2019-05-15T00:38:09.608Z,11.30
2019-05-15T00:40:39.498Z,11.30
2019-05-15T00:43:09.173Z,11.40
2019-05-15T00:45:38.844Z,11.40
2019-05-15T00:48:08.883Z,11.40
2019-05-15T00:50:39.321Z,11.40
2019-05-15T00:53:09.001Z,11.30
2019-05-15T00:55:39.072Z,11.30
2019-05-15T00:58:08.896Z,11.20
2019-05-15T01:00:42.953Z,11.30
2019-05-15T01:03:12.337Z,11.20
2019-05-15T01:05:41.798Z,11.10
2019-05-15T01:08:11.166Z,11.20
2019-05-15T01:10:40.534Z,11.20
2019-05-15T01:13:09.907Z,11.10
2019-05-15T01:15:39.324Z,11.10
2019-05-15T01:18:09.414Z,11.10
2019-05-15T01:20:39.362Z,11.10
2019-05-15T01:23:09.202Z,11.10
2019-05-15T01:25:39.118Z,11.10
2019-05-15T01:28:09.339Z,11.00
2019-05-15T01:30:39.527Z,11.00
2019-05-15T01:33:09.041Z,11.00
2019-05-15T01:35:38.584Z,10.90
2019-05-15T01:38:08.363Z,10.90
2019-05-15T01:40:38.568Z,10.90
2019-05-15T01:43:09.078Z,10.90
2019-05-15T01:45:39.420Z,10.90
2019-05-15T01:48:09.005Z,10.90
2019-05-15T01:50:38.997Z,10.80
2019-05-15T01:53:08.615Z,10.80
2019-05-15T01:55:39.405Z,10.80
2019-05-15T01:58:09.379Z,10.80
2019-05-15T02:00:39.393Z,10.70
2019-05-15T02:03:09.691Z,10.80
2019-05-15T02:05:39.737Z,10.70
2019-05-15T02:08:09.085Z,10.70
2019-05-15T02:10:39.223Z,10.70
2019-05-15T02:13:08.966Z,10.60
2019-05-15T02:15:39.598Z,10.70
2019-05-15T02:18:09.219Z,10.70
2019-05-15T02:20:39.170Z,10.60
2019-05-15T02:23:11.543Z,10.60
2019-05-15T02:25:40.105Z,10.50
2019-05-15T02:28:09.656Z,10.50
2019-05-15T02:30:40.404Z,10.50
2019-05-15T02:33:11.061Z,10.40
2019-05-15T02:35:40.540Z,10.40
2019-05-15T02:38:14.699Z,10.40
2019-05-15T02:40:41.158Z,10.30
2019-05-15T02:43:10.768Z,10.30
2019-05-15T02:45:41.848Z,10.30
2019-05-15T02:48:11.204Z,10.30
2019-05-15T02:50:40.586Z,10.20
2019-05-15T02:53:10.516Z,10.20
2019-05-15T02:55:40.548Z,10.20
2019-05-15T02:58:10.613Z,10.20
2019-05-15T03:00:47.263Z,10.20
2019-05-15T03:03:11.287Z,10.20
2019-05-15T03:05:41.220Z,10.20
2019-05-15T03:08:10.636Z,10.20
2019-05-15T03:10:40.948Z,10.30
2019-05-15T03:13:10.494Z,10.30
2019-05-15T03:15:40.722Z,10.40
2019-05-15T03:18:10.405Z,10.40
2019-05-15T03:20:40.061Z,10.50
2019-05-15T03:23:10.069Z,10.50
2019-05-15T03:25:40.607Z,10.40
2019-05-15T03:28:10.897Z,10.40
2019-05-15T03:31:12.249Z,10.40
2019-05-15T03:33:18.881Z,10.50
2019-05-15T03:35:44.008Z,10.50
2019-05-15T03:38:13.447Z,10.40
2019-05-15T03:40:42.835Z,10.40
2019-05-15T03:43:12.205Z,10.30
2019-05-15T03:45:41.590Z,10.30
2019-05-15T03:48:10.974Z,10.20
2019-05-15T03:50:40.712Z,10.20
2019-05-15T03:53:10.859Z,10.10
2019-05-15T03:55:40.904Z,10.10
2019-05-15T03:58:10.584Z,10.10
2019-05-15T04:00:40.322Z,10.10
2019-05-15T04:03:11.111Z,10.00
2019-05-15T04:05:40.843Z,10.00
2019-05-15T04:08:11.266Z,10.00
2019-05-15T04:10:40.811Z,10.10
2019-05-15T04:13:10.186Z,10.10
2019-05-15T04:15:40.046Z,10.20
2019-05-15T04:18:09.903Z,10.20
2019-05-15T04:20:40.536Z,10.30
2019-05-15T04:23:10.749Z,10.20
2019-05-15T04:25:41.119Z,10.20
2019-05-15T04:28:11.904Z,10.20
2019-05-15T04:30:41.214Z,10.20
2019-05-15T04:33:10.553Z,10.20
2019-05-15T04:35:40.609Z,10.20
2019-05-15T04:38:09.989Z,10.20
2019-05-15T04:40:39.971Z,10.20
2019-05-15T04:43:10.615Z,10.20
2019-05-15T04:45:40.368Z,10.20
2019-05-15T04:48:10.437Z,10.20
2019-05-15T04:50:40.439Z,10.20
2019-05-15T04:53:11.044Z,10.20
2019-05-15T04:55:40.969Z,10.30
2019-05-15T04:58:10.702Z,10.30
2019-05-15T05:00:50.594Z,10.20
2019-05-15T05:03:20.567Z,10.20
2019-05-15T05:05:50.744Z,10.30
2019-05-15T05:08:20.740Z,10.40
2019-05-15T05:10:50.394Z,10.40
2019-05-15T05:13:20.279Z,10.50
2019-05-15T05:15:50.433Z,10.60
2019-05-15T05:18:19.947Z,10.50
2019-05-15T05:20:49.250Z,10.50
2019-05-15T05:23:19.417Z,10.50
2019-05-15T05:25:49.348Z,10.50
2019-05-15T05:28:18.900Z,10.50
2019-05-15T05:30:48.655Z,10.60
2019-05-15T05:33:18.620Z,10.60
2019-05-15T05:35:48.742Z,10.60
2019-05-15T05:38:19.039Z,10.60
2019-05-15T05:40:49.838Z,10.80
2019-05-15T05:43:19.518Z,10.80
2019-05-15T05:45:49.369Z,11.00
2019-05-15T05:48:19.114Z,11.00
2019-05-15T05:50:49.529Z,11.10
2019-05-15T05:53:21.362Z,11.10
2019-05-15T05:55:53.296Z,11.10
2019-05-15T05:58:21.191Z,11.20
2019-05-15T06:00:51.529Z,11.30
2019-05-15T06:03:20.774Z,11.40
2019-05-15T06:05:50.181Z,11.50
2019-05-15T06:08:20.110Z,11.50
2019-05-15T06:10:49.974Z,11.60
2019-05-15T06:13:19.363Z,11.70
2019-05-15T06:15:49.200Z,11.80
2019-05-15T06:18:19.634Z,11.80
2019-05-15T06:20:49.892Z,11.90
2019-05-15T06:23:23.183Z,12.00
2019-05-15T06:25:50.561Z,12.00
2019-05-15T06:28:20.530Z,12.10
2019-05-15T06:30:49.917Z,12.20
2019-05-15T06:33:19.439Z,12.20
2019-05-15T06:35:49.260Z,12.20
2019-05-15T06:38:19.328Z,12.30
2019-05-15T06:40:49.020Z,12.40
2019-05-15T06:43:19.131Z,12.40
2019-05-15T06:45:49.250Z,12.50
2019-05-15T06:48:18.842Z,12.60
2019-05-15T06:50:48.990Z,12.70
2019-05-15T06:53:19.469Z,12.70
2019-05-15T06:55:49.179Z,12.80
2019-05-15T06:58:19.683Z,12.80
2019-05-15T07:00:49.480Z,12.90
2019-05-15T07:03:25.517Z,12.90
2019-05-15T07:05:51.038Z,13.00
2019-05-15T07:08:20.454Z,13.10
2019-05-15T07:10:49.963Z,13.20
2019-05-15T07:13:19.274Z,13.30
2019-05-15T07:15:49.468Z,13.40
2019-05-15T07:18:19.689Z,13.60
2019-05-15T07:20:49.705Z,13.70
2019-05-15T07:23:19.250Z,13.80
2019-05-15T07:25:49.769Z,13.90
2019-05-15T07:28:19.441Z,14.00
2019-05-15T07:30:49.724Z,14.10
2019-05-15T07:33:35.361Z,14.20
2019-05-15T07:35:51.130Z,14.20
2019-05-15T07:38:20.365Z,14.20
2019-05-15T07:40:57.311Z,14.40
2019-05-15T07:43:20.507Z,14.40
2019-05-15T07:45:55.197Z,14.50
2019-05-15T07:48:20.711Z,14.60
2019-05-15T07:50:50.100Z,14.70
2019-05-15T07:53:20.005Z,14.80
2019-05-15T07:55:50.997Z,14.90
2019-05-15T07:58:21.902Z,15.00
2019-05-15T08:00:51.379Z,15.10
2019-05-15T08:03:20.664Z,15.20
2019-05-15T08:05:58.850Z,15.30
2019-05-15T08:08:20.834Z,15.40
2019-05-15T08:10:50.167Z,15.50
2019-05-15T08:13:19.417Z,15.60
2019-05-15T08:15:49.046Z,15.70
2019-05-15T08:18:18.512Z,15.80
2019-05-15T08:20:49.114Z,15.80
2019-05-15T08:23:19.477Z,15.80
2019-05-15T08:25:48.969Z,15.80
2019-05-15T08:28:19.032Z,15.80
2019-05-15T08:30:49.500Z,15.90
2019-05-15T08:33:19.233Z,16.00
2019-05-15T08:35:51.611Z,16.10
2019-05-15T08:38:19.398Z,16.10
2019-05-15T08:40:49.222Z,16.10
2019-05-15T08:43:18.770Z,16.10
2019-05-15T08:45:49.539Z,16.20
2019-05-15T08:48:18.938Z,16.20
2019-05-15T08:50:48.904Z,16.30
2019-05-15T08:53:19.419Z,16.40
2019-05-15T08:55:48.857Z,16.40
2019-05-15T08:58:20.450Z,16.50
2019-05-15T09:00:52.393Z,16.60
2019-05-15T09:03:20.178Z,16.50
2019-05-15T09:05:49.415Z,16.60
2019-05-15T09:08:19.648Z,16.70
2019-05-15T09:10:50.386Z,16.70
2019-05-15T09:13:20.045Z,16.80
2019-05-15T09:15:49.772Z,16.80
2019-05-15T09:18:20.419Z,16.90
2019-05-15T09:20:49.928Z,16.90
2019-05-15T09:23:19.939Z,17.00
2019-05-15T09:25:49.956Z,17.10
2019-05-15T09:28:19.668Z,17.10
2019-05-15T09:30:49.400Z,17.20
2019-05-15T09:33:20.049Z,17.30
2019-05-15T09:35:50.216Z,17.30
2019-05-15T09:38:19.867Z,17.40
2019-05-15T09:40:51.011Z,17.40
2019-05-15T09:43:21.060Z,17.50
2019-05-15T09:45:50.544Z,17.50
2019-05-15T09:48:20.326Z,17.50
2019-05-15T09:50:49.959Z,17.50
2019-05-15T09:53:19.520Z,17.40
2019-05-15T09:55:49.635Z,17.40
2019-05-15T09:58:20.694Z,17.40
2019-05-15T10:00:52.784Z,17.50
2019-05-15T10:03:21.496Z,17.50
2019-05-15T10:05:50.847Z,17.60
2019-05-15T10:08:21.215Z,17.70
2019-05-15T10:10:51.238Z,17.70
2019-05-15T10:13:20.596Z,17.80
2019-05-15T10:15:51.096Z,18.00
2019-05-15T10:18:20.698Z,18.10
2019-05-15T10:20:50.365Z,18.20
2019-05-15T10:23:20.340Z,18.20
2019-05-15T10:25:49.732Z,18.10
2019-05-15T10:28:19.619Z,18.10
2019-05-15T10:30:49.972Z,18.20
2019-05-15T10:33:20.363Z,18.30
2019-05-15T10:35:49.958Z,18.30
2019-05-15T10:38:19.675Z,18.30
2019-05-15T10:41:04.060Z,18.30
2019-05-15T10:43:20.866Z,18.10
2019-05-15T10:45:50.896Z,18.10
2019-05-15T10:48:21.520Z,18.10
2019-05-15T10:50:50.900Z,18.40
2019-05-15T10:53:20.239Z,18.60
2019-05-15T10:55:49.805Z,18.80
2019-05-15T10:58:22.146Z,18.80
2019-05-15T11:00:50.376Z,19.00
2019-05-15T11:03:20.254Z,19.00
2019-05-15T11:05:49.523Z,19.00
2019-05-15T11:08:19.186Z,19.20
2019-05-15T11:10:49.314Z,19.10
2019-05-15T11:13:19.192Z,19.20
2019-05-15T11:15:49.093Z,19.00
2019-05-15T11:18:18.840Z,19.10
2019-05-15T11:20:48.928Z,19.20
2019-05-15T11:23:20.051Z,19.40
2019-05-15T11:25:49.270Z,19.60
2019-05-15T11:28:19.568Z,19.80
2019-05-15T11:30:49.381Z,20.00
2019-05-15T11:33:19.945Z,20.10
2019-05-15T11:36:00.479Z,20.00
2019-05-15T11:38:21.600Z,20.20
2019-05-15T11:40:50.853Z,20.50
2019-05-15T11:43:20.168Z,20.70
2019-05-15T11:45:49.586Z,21.00
2019-05-15T11:48:20.528Z,21.30
2019-05-15T11:50:50.079Z,22.60
2019-05-15T11:53:19.501Z,23.90
2019-05-15T11:55:48.954Z,25.60
2019-05-15T11:58:19.124Z,26.90
2019-05-15T12:00:49.317Z,27.60
2019-05-15T12:03:19.225Z,27.70
2019-05-15T12:05:48.823Z,27.90
2019-05-15T12:08:18.677Z,28.30
2019-05-15T12:10:48.149Z,28.80
2019-05-15T12:13:19.204Z,29.10
2019-05-15T12:15:48.879Z,29.30
2019-05-15T12:18:18.167Z,29.80
2019-05-15T12:20:48.702Z,30.50
2019-05-15T12:23:18.282Z,31.10
2019-05-15T12:25:48.869Z,32.30
2019-05-15T12:28:18.484Z,32.40
2019-05-15T12:30:49.203Z,32.30
2019-05-15T12:33:18.739Z,31.40
2019-05-15T12:35:50.778Z,32.00
2019-05-15T12:38:19.258Z,32.70
2019-05-15T13:00:57.933Z,33.70
2019-05-15T13:03:28.946Z,32.60
2019-05-15T13:05:58.455Z,34.20
2019-05-15T13:08:29.133Z,35.10
2019-05-15T13:10:58.617Z,35.20
2019-05-15T13:13:28.473Z,35.70
2019-05-15T13:15:58.936Z,35.20
2019-05-15T13:18:28.860Z,34.40
2019-05-15T13:20:59.468Z,35.00
2019-05-15T13:23:29.127Z,35.50
2019-05-15T13:25:59.415Z,33.50
2019-05-15T13:28:29.256Z,33.10
2019-05-15T13:30:59.571Z,34.00
2019-05-15T13:33:29.211Z,35.50
2019-05-15T13:35:58.708Z,35.60
2019-05-15T13:38:32.686Z,36.20
2019-05-15T13:41:05.971Z,36.60
2019-05-15T13:43:38.516Z,36.70
2019-05-15T13:46:08.866Z,36.60
2019-05-15T13:48:38.683Z,36.70
2019-05-15T13:51:08.150Z,36.50
2019-05-15T13:53:38.455Z,36.30
2019-05-15T13:56:09.014Z,36.80
2019-05-15T13:58:38.876Z,36.90
2019-05-15T14:01:09.393Z,37.30
2019-05-15T14:03:39.084Z,37.30
2019-05-15T14:06:09.323Z,37.10
2019-05-15T14:08:39.201Z,36.20
2019-05-15T14:11:08.852Z,36.50
2019-05-15T14:13:39.273Z,35.30
2019-05-15T14:16:09.675Z,35.50
2019-05-15T14:18:39.259Z,35.30
2019-05-15T14:21:09.045Z,35.60
2019-05-15T14:23:38.557Z,34.90
2019-05-15T14:26:18.291Z,34.90
2019-05-15T14:28:39.013Z,34.60
2019-05-15T14:31:09.758Z,33.90
2019-05-15T14:33:39.173Z,35.70
2019-05-15T14:36:08.627Z,37.30
2019-05-15T14:38:38.075Z,37.60
2019-05-15T14:41:08.772Z,37.90
2019-05-15T14:43:38.442Z,38.40
2019-05-15T14:46:08.215Z,37.10
2019-05-15T14:48:38.647Z,37.40
2019-05-15T14:51:08.690Z,37.70
2019-05-15T14:53:38.724Z,37.80
2019-05-15T14:56:08.823Z,38.00
2019-05-15T14:58:38.863Z,37.10
2019-05-15T15:01:12.084Z,33.90
2019-05-15T15:03:39.283Z,34.80
2019-05-15T15:06:09.059Z,35.60
2019-05-15T15:08:38.369Z,36.30
2019-05-15T15:11:08.789Z,35.60
2019-05-15T15:13:38.376Z,36.30
2019-05-15T15:16:08.474Z,35.30
2019-05-15T15:18:38.616Z,35.10
2019-05-15T15:21:08.653Z,35.70
2019-05-15T15:23:38.763Z,36.50
2019-05-15T15:26:08.502Z,37.10
2019-05-15T15:28:39.996Z,37.80
2019-05-15T15:31:08.918Z,36.60
2019-05-15T15:33:39.226Z,36.10
2019-05-15T15:36:08.942Z,36.60
2019-05-15T15:38:43.409Z,36.40
2019-05-15T15:41:09.352Z,36.90
2019-05-15T15:43:38.887Z,36.80
2019-05-15T15:46:08.777Z,36.60
2019-05-15T15:48:39.092Z,35.70
2019-05-15T15:51:09.244Z,34.60
2019-05-15T15:53:41.740Z,33.80
2019-05-15T15:56:12.122Z,31.70
2019-05-15T15:58:41.546Z,30.90
2019-05-15T16:01:10.952Z,30.50
2019-05-15T16:03:40.331Z,30.50
2019-05-15T16:06:10.121Z,29.40
2019-05-15T16:08:52.093Z,27.70
2019-05-15T16:11:10.638Z,26.80
2019-05-15T16:13:40.042Z,26.30
2019-05-15T16:16:09.475Z,26.00
2019-05-15T16:18:38.828Z,25.80
2019-05-15T16:21:08.534Z,25.20
2019-05-15T16:23:38.641Z,24.60
2019-05-15T16:26:09.198Z,24.20
2019-05-15T16:28:38.986Z,24.40
2019-05-15T16:31:08.690Z,24.40
2019-05-15T16:33:38.999Z,24.80
2019-05-15T16:36:08.873Z,24.90
2019-05-15T16:38:38.952Z,25.10
2019-05-15T16:41:09.071Z,25.20
2019-05-15T16:43:38.512Z,25.50
2019-05-15T16:46:09.106Z,26.80
2019-05-15T16:48:39.070Z,27.30
2019-05-15T16:51:09.525Z,27.50
2019-05-15T16:53:39.077Z,28.10
2019-05-15T16:56:08.456Z,28.70
2019-05-15T16:58:38.512Z,30.00
2019-05-15T17:01:08.000Z,29.30
2019-05-15T17:03:38.045Z,29.60
2019-05-15T17:06:09.463Z,30.40
2019-05-15T17:08:38.484Z,29.60
2019-05-15T17:11:08.165Z,28.70
2019-05-15T17:13:39.371Z,29.30
2019-05-15T17:16:08.479Z,29.70
2019-05-15T17:18:38.205Z,30.40
2019-05-15T17:21:10.081Z,30.80
2019-05-15T17:23:38.813Z,30.60
2019-05-15T17:26:08.805Z,30.70
2019-05-15T17:28:38.435Z,30.80
2019-05-15T17:31:09.201Z,30.50
2019-05-15T17:33:38.679Z,30.70
2019-05-15T17:36:08.094Z,31.10
2019-05-15T17:38:38.108Z,30.40
2019-05-15T17:41:08.304Z,30.60
2019-05-15T17:43:37.962Z,31.40
2019-05-15T17:46:08.844Z,30.50
2019-05-15T17:48:38.916Z,29.40
2019-05-15T17:51:09.133Z,29.50
2019-05-15T17:53:38.656Z,28.20
2019-05-15T17:56:07.923Z,26.50
2019-05-15T17:58:38.122Z,25.10
2019-05-15T18:01:08.792Z,23.40
2019-05-15T18:03:39.334Z,22.40
2019-05-15T18:06:08.807Z,21.30
2019-05-15T18:08:39.081Z,20.90
2019-05-15T18:11:08.629Z,20.50
2019-05-15T18:13:38.290Z,19.90
2019-05-15T18:16:12.972Z,19.50
2019-05-15T18:18:38.691Z,19.20
2019-05-15T18:21:08.791Z,19.00
2019-05-15T18:23:38.928Z,18.90
2019-05-15T18:26:09.058Z,18.70
2019-05-15T18:28:38.916Z,18.60
2019-05-15T18:31:08.938Z,18.60
2019-05-15T18:33:42.568Z,18.60
2019-05-15T18:36:09.550Z,18.50
2019-05-15T18:38:39.117Z,18.40
2019-05-15T18:41:09.041Z,18.20
2019-05-15T18:43:38.581Z,18.00
2019-05-15T18:46:09.047Z,17.90
2019-05-15T18:48:38.511Z,17.80
2019-05-15T18:51:08.197Z,17.80
2019-05-15T18:53:40.642Z,17.60
2019-05-15T18:56:10.012Z,17.40
2019-05-15T18:58:39.400Z,17.40
2019-05-15T19:01:09.236Z,17.30
2019-05-15T19:03:38.846Z,17.20
2019-05-15T19:06:08.948Z,17.20
2019-05-15T19:08:38.788Z,17.20
2019-05-15T19:11:08.214Z,17.20
2019-05-15T19:13:38.958Z,17.00
2019-05-15T19:16:08.418Z,16.80
2019-05-15T19:18:38.452Z,16.70
2019-05-15T19:21:08.529Z,16.60
2019-05-15T19:23:40.364Z,16.40
2019-05-15T19:26:11.732Z,16.40
2019-05-15T19:28:40.790Z,16.40
2019-05-15T19:31:22.089Z,16.30
2019-05-15T19:33:41.464Z,16.30
2019-05-15T19:36:10.862Z,16.20
2019-05-15T19:38:40.784Z,16.10
2019-05-15T19:41:10.338Z,16.10
2019-05-15T19:43:39.713Z,16.00
2019-05-15T19:46:09.146Z,16.00
2019-05-15T19:48:38.740Z,15.90
2019-05-15T19:51:09.063Z,15.80
2019-05-15T19:53:38.575Z,15.90
2019-05-15T19:56:08.510Z,15.90
2019-05-15T19:58:38.020Z,15.80
2019-05-15T20:01:08.103Z,15.70
2019-05-15T20:03:49.658Z,15.70
2019-05-15T20:06:08.658Z,15.60
2019-05-15T20:08:38.736Z,15.60
2019-05-15T20:11:10.403Z,15.40
2019-05-15T20:13:39.165Z,15.30
2019-05-15T20:16:08.581Z,15.40
2019-05-15T20:18:38.545Z,15.30
2019-05-15T20:21:08.875Z,15.30
2019-05-15T20:23:38.363Z,15.20
2019-05-15T20:26:08.372Z,15.20
2019-05-15T20:28:39.244Z,15.10
2019-05-15T20:31:09.776Z,15.00
2019-05-15T20:33:39.128Z,15.00
2019-05-15T20:36:09.083Z,15.00
2019-05-15T20:38:39.463Z,14.90
2019-05-15T20:41:09.007Z,15.00
2019-05-15T20:43:38.536Z,14.90
2019-05-15T20:46:08.489Z,14.90
2019-05-15T20:48:38.343Z,14.80
2019-05-15T20:51:07.669Z,14.80
2019-05-15T20:53:38.038Z,14.70
2019-05-15T20:56:08.327Z,14.70
2019-05-15T20:58:38.289Z,14.70
2019-05-15T21:01:09.123Z,14.60
2019-05-15T21:03:39.492Z,14.50
2019-05-15T21:06:10.795Z,14.50
2019-05-15T21:08:39.884Z,14.50
2019-05-15T21:11:11.901Z,14.50
2019-05-15T21:13:40.428Z,14.40
2019-05-15T21:16:10.082Z,14.40
2019-05-15T21:18:41.511Z,14.40
2019-05-15T21:21:10.677Z,14.30
2019-05-15T21:23:40.142Z,14.20
2019-05-15T21:26:11.065Z,14.10
2019-05-15T21:28:40.558Z,14.20
2019-05-15T21:31:10.179Z,14.20
2019-05-15T21:33:39.632Z,14.20
2019-05-15T21:36:09.000Z,14.20
2019-05-15T21:38:38.876Z,14.20
2019-05-15T21:41:08.298Z,14.10
2019-05-15T21:43:37.599Z,14.10
2019-05-15T21:46:08.506Z,14.10
2019-05-15T21:48:38.307Z,14.10
2019-05-15T21:51:11.395Z,14.10
2019-05-15T21:53:38.998Z,13.90
2019-05-15T21:56:08.428Z,13.80
2019-05-15T21:58:37.850Z,13.80
2019-05-15T22:01:10.560Z,13.90
2019-05-15T22:03:40.193Z,13.90
2019-05-15T22:06:09.564Z,13.90
2019-05-15T22:08:38.933Z,13.80
2019-05-15T22:11:08.532Z,13.80
2019-05-15T22:13:39.251Z,13.90
2019-05-15T22:16:08.919Z,13.90
2019-05-15T22:18:38.547Z,13.90
2019-05-15T22:21:07.986Z,13.80
2019-05-15T22:23:38.432Z,13.80
2019-05-15T22:26:07.946Z,13.70
2019-05-15T22:28:38.634Z,13.60
2019-05-15T22:31:08.852Z,13.60
2019-05-15T22:33:38.438Z,13.60
2019-05-15T22:36:08.370Z,13.60
2019-05-15T22:38:37.813Z,13.60
2019-05-15T22:41:10.249Z,13.50
2019-05-15T22:43:39.204Z,13.60
2019-05-15T22:46:11.001Z,13.70
2019-05-15T22:48:39.596Z,13.70
2019-05-15T22:51:08.960Z,13.70
2019-05-15T22:53:38.416Z,13.50
2019-05-15T22:56:09.326Z,13.40
2019-05-15T22:58:38.784Z,13.30
2019-05-15T23:01:09.258Z,13.20
2019-05-15T23:03:39.467Z,13.20
2019-05-15T23:06:08.975Z,13.30
2019-05-15T23:08:38.636Z,13.20
2019-05-15T23:11:09.561Z,13.10
2019-05-15T23:13:39.082Z,13.00
2019-05-15T23:16:08.423Z,12.90
2019-05-15T23:18:37.789Z,13.00
2019-05-15T23:21:08.871Z,13.10
2019-05-15T23:23:38.168Z,13.10
2019-05-15T23:26:07.458Z,13.10
2019-05-15T23:28:38.665Z,12.90
2019-05-15T23:31:08.312Z,12.90
2019-05-15T23:33:40.087Z,12.80
2019-05-15T23:36:09.429Z,12.90
2019-05-15T23:38:38.818Z,13.00
2019-05-15T23:41:08.340Z,13.00
2019-05-15T23:43:38.966Z,12.90
2019-05-15T23:46:08.285Z,12.90
2019-05-15T23:48:38.211Z,12.80
2019-05-15T23:51:08.517Z,12.70
2019-05-15T23:53:38.293Z,12.70
2019-05-15T23:56:09.342Z,12.60
2019-05-15T23:58:38.774Z,12.60
